sensor_id;sensor_type;location;lat;lon;timestamp;P1;durP1;ratioP1;P2;durP2;ratioP2
48006;SDS011;33771;48.180;11.400;2022-07-12T00:01:31;4.07;;;3.08;;
48006;SDS011;33771;48.180;11.400;2022-07-12T00:03:57;3.95;;;2.78;;
48006;SDS011;33771;48.180;11.400;2022-07-12T00:06:22;5.70;;;3.10;;
48006;SDS011;33771;48.180;11.400;2022-07-12T00:08:48;3.78;;;3.20;;
48006;SDS011;33771;48.180;11.400;2022-07-12T00:11:13;3.88;;;3.13;;
48006;SDS011;33771;48.180;11.400;2022-07-12T00:13:39;6.13;;;3.28;;
48006;SDS011;33771;48.180;11.400;2022-07-12T00:16:04;4.05;;;2.97;;
48006;SDS011;33771;48.180;11.400;2022-07-12T00:18:31;3.75;;;3.28;;
48006;SDS011;33771;48.180;11.400;2022-07-12T00:20:56;4.97;;;3.17;;
48006;SDS011;33771;48.180;11.400;2022-07-12T00:23:22;5.68;;;3.53;;
48006;SDS011;33771;48.180;11.400;2022-07-12T00:25:47;4.22;;;3.25;;
48006;SDS011;33771;48.180;11.400;2022-07-12T00:28:13;8.23;;;3.58;;
48006;SDS011;33771;48.180;11.400;2022-07-12T00:30:38;3.22;;;2.92;;
48006;SDS011;33771;48.180;11.400;2022-07-12T00:33:04;3.25;;;2.95;;
48006;SDS011;33771;48.180;11.400;2022-07-12T00:35:29;4.53;;;3.20;;
48006;SDS011;33771;48.180;11.400;2022-07-12T00:37:55;4.85;;;3.25;;
48006;SDS011;33771;48.180;11.400;2022-07-12T00:40:21;4.05;;;3.10;;
48006;SDS011;33771;48.180;11.400;2022-07-12T00:42:46;4.05;;;3.20;;
48006;SDS011;33771;48.180;11.400;2022-07-12T00:45:12;4.15;;;3.22;;
48006;SDS011;33771;48.180;11.400;2022-07-12T00:47:39;3.90;;;3.17;;
48006;SDS011;33771;48.180;11.400;2022-07-12T00:50:07;5.75;;;3.78;;
48006;SDS011;33771;48.180;11.400;2022-07-12T00:52:35;5.65;;;4.07;;
48006;SDS011;33771;48.180;11.400;2022-07-12T00:55:02;4.93;;;3.22;;
48006;SDS011;33771;48.180;11.400;2022-07-12T00:57:31;3.53;;;3.13;;
48006;SDS011;33771;48.180;11.400;2022-07-12T00:59:58;8.27;;;3.70;;
48006;SDS011;33771;48.180;11.400;2022-07-12T01:02:23;3.88;;;3.45;;
48006;SDS011;33771;48.180;11.400;2022-07-12T01:04:50;3.88;;;3.17;;
48006;SDS011;33771;48.180;11.400;2022-07-12T01:07:16;5.05;;;3.60;;
48006;SDS011;33771;48.180;11.400;2022-07-12T01:09:42;6.65;;;3.42;;
48006;SDS011;33771;48.180;11.400;2022-07-12T01:12:09;4.25;;;3.30;;
48006;SDS011;33771;48.180;11.400;2022-07-12T01:14:35;5.68;;;3.30;;
48006;SDS011;33771;48.180;11.400;2022-07-12T01:17:01;7.45;;;3.60;;
48006;SDS011;33771;48.180;11.400;2022-07-12T01:19:27;4.82;;;3.60;;
48006;SDS011;33771;48.180;11.400;2022-07-12T01:21:53;4.57;;;3.42;;
48006;SDS011;33771;48.180;11.400;2022-07-12T01:24:22;7.05;;;3.53;;
48006;SDS011;33771;48.180;11.400;2022-07-12T01:26:49;4.55;;;3.75;;
48006;SDS011;33771;48.180;11.400;2022-07-12T01:29:15;6.88;;;3.25;;
48006;SDS011;33771;48.180;11.400;2022-07-12T01:31:41;4.80;;;3.33;;
48006;SDS011;33771;48.180;11.400;2022-07-12T01:34:07;4.10;;;3.70;;
48006;SDS011;33771;48.180;11.400;2022-07-12T01:36:34;5.07;;;3.50;;
48006;SDS011;33771;48.180;11.400;2022-07-12T01:39:01;4.35;;;3.55;;
48006;SDS011;33771;48.180;11.400;2022-07-12T01:41:28;5.43;;;4.20;;
48006;SDS011;33771;48.180;11.400;2022-07-12T01:43:55;7.40;;;3.38;;
48006;SDS011;33771;48.180;11.400;2022-07-12T01:46:21;4.13;;;3.72;;
48006;SDS011;33771;48.180;11.400;2022-07-12T01:48:46;7.43;;;3.40;;
48006;SDS011;33771;48.180;11.400;2022-07-12T01:51:12;5.93;;;3.15;;
48006;SDS011;33771;48.180;11.400;2022-07-12T01:53:37;4.55;;;3.15;;
48006;SDS011;33771;48.180;11.400;2022-07-12T01:56:03;5.03;;;3.95;;
48006;SDS011;33771;48.180;11.400;2022-07-12T01:58:29;3.90;;;3.05;;
48006;SDS011;33771;48.180;11.400;2022-07-12T02:00:56;4.30;;;3.83;;
48006;SDS011;33771;48.180;11.400;2022-07-12T02:03:22;5.70;;;3.83;;
48006;SDS011;33771;48.180;11.400;2022-07-12T02:05:48;10.55;;;4.40;;
48006;SDS011;33771;48.180;11.400;2022-07-12T02:08:14;6.47;;;3.88;;
48006;SDS011;33771;48.180;11.400;2022-07-12T02:10:40;6.65;;;3.90;;
48006;SDS011;33771;48.180;11.400;2022-07-12T02:13:06;4.78;;;3.88;;
48006;SDS011;33771;48.180;11.400;2022-07-12T02:15:32;5.65;;;3.53;;
48006;SDS011;33771;48.180;11.400;2022-07-12T02:17:58;4.78;;;3.35;;
48006;SDS011;33771;48.180;11.400;2022-07-12T02:20:23;4.63;;;3.67;;
48006;SDS011;33771;48.180;11.400;2022-07-12T02:22:49;4.28;;;3.35;;
48006;SDS011;33771;48.180;11.400;2022-07-12T02:25:15;3.80;;;3.40;;
48006;SDS011;33771;48.180;11.400;2022-07-12T02:27:41;7.45;;;3.30;;
48006;SDS011;33771;48.180;11.400;2022-07-12T02:30:07;5.45;;;3.50;;
48006;SDS011;33771;48.180;11.400;2022-07-12T02:32:35;4.80;;;3.90;;
48006;SDS011;33771;48.180;11.400;2022-07-12T02:35:01;7.35;;;4.07;;
48006;SDS011;33771;48.180;11.400;2022-07-12T02:37:27;5.30;;;3.95;;
48006;SDS011;33771;48.180;11.400;2022-07-12T02:39:53;6.22;;;3.85;;
48006;SDS011;33771;48.180;11.400;2022-07-12T02:42:41;7.85;;;3.80;;
48006;SDS011;33771;48.180;11.400;2022-07-12T02:45:08;6.65;;;4.05;;
48006;SDS011;33771;48.180;11.400;2022-07-12T02:47:36;5.85;;;3.72;;
48006;SDS011;33771;48.180;11.400;2022-07-12T02:50:03;6.57;;;3.50;;
48006;SDS011;33771;48.180;11.400;2022-07-12T02:52:29;5.95;;;3.70;;
48006;SDS011;33771;48.180;11.400;2022-07-12T02:54:54;6.10;;;3.83;;
48006;SDS011;33771;48.180;11.400;2022-07-12T02:57:20;4.97;;;3.70;;
48006;SDS011;33771;48.180;11.400;2022-07-12T02:59:45;7.10;;;4.05;;
48006;SDS011;33771;48.180;11.400;2022-07-12T03:02:11;5.53;;;4.10;;
48006;SDS011;33771;48.180;11.400;2022-07-12T03:04:36;6.25;;;3.85;;
48006;SDS011;33771;48.180;11.400;2022-07-12T03:07:02;4.75;;;3.50;;
48006;SDS011;33771;48.180;11.400;2022-07-12T03:09:28;4.97;;;3.40;;
48006;SDS011;33771;48.180;11.400;2022-07-12T03:11:53;5.80;;;3.45;;
48006;SDS011;33771;48.180;11.400;2022-07-12T03:14:19;4.68;;;3.67;;
48006;SDS011;33771;48.180;11.400;2022-07-12T03:16:44;4.95;;;3.78;;
48006;SDS011;33771;48.180;11.400;2022-07-12T03:19:10;4.28;;;3.88;;
48006;SDS011;33771;48.180;11.400;2022-07-12T03:21:35;6.00;;;4.22;;
48006;SDS011;33771;48.180;11.400;2022-07-12T03:24:01;9.32;;;3.83;;
48006;SDS011;33771;48.180;11.400;2022-07-12T03:26:26;5.97;;;4.10;;
48006;SDS011;33771;48.180;11.400;2022-07-12T03:28:52;7.78;;;4.40;;
48006;SDS011;33771;48.180;11.400;2022-07-12T03:31:17;5.97;;;4.75;;
48006;SDS011;33771;48.180;11.400;2022-07-12T03:33:43;7.20;;;4.68;;
48006;SDS011;33771;48.180;11.400;2022-07-12T03:36:09;4.97;;;4.47;;
48006;SDS011;33771;48.180;11.400;2022-07-12T03:38:35;6.22;;;4.80;;
48006;SDS011;33771;48.180;11.400;2022-07-12T03:41:01;7.18;;;4.80;;
48006;SDS011;33771;48.180;11.400;2022-07-12T03:43:27;6.65;;;5.07;;
48006;SDS011;33771;48.180;11.400;2022-07-12T03:45:53;10.27;;;4.90;;
48006;SDS011;33771;48.180;11.400;2022-07-12T03:48:18;9.95;;;4.63;;
48006;SDS011;33771;48.180;11.400;2022-07-12T03:50:44;6.93;;;4.20;;
48006;SDS011;33771;48.180;11.400;2022-07-12T03:53:10;6.55;;;4.57;;
48006;SDS011;33771;48.180;11.400;2022-07-12T03:55:36;7.65;;;4.35;;
48006;SDS011;33771;48.180;11.400;2022-07-12T03:58:02;5.90;;;4.38;;
48006;SDS011;33771;48.180;11.400;2022-07-12T04:00:28;5.68;;;3.92;;
48006;SDS011;33771;48.180;11.400;2022-07-12T04:02:54;5.35;;;4.15;;
48006;SDS011;33771;48.180;11.400;2022-07-12T04:05:19;6.05;;;3.83;;
48006;SDS011;33771;48.180;11.400;2022-07-12T04:07:45;7.03;;;3.92;;
48006;SDS011;33771;48.180;11.400;2022-07-12T04:10:10;5.57;;;4.07;;
48006;SDS011;33771;48.180;11.400;2022-07-12T04:12:36;6.03;;;4.30;;
48006;SDS011;33771;48.180;11.400;2022-07-12T04:15:05;5.93;;;4.07;;
48006;SDS011;33771;48.180;11.400;2022-07-12T04:17:31;6.03;;;4.28;;
48006;SDS011;33771;48.180;11.400;2022-07-12T04:19:57;5.05;;;4.45;;
48006;SDS011;33771;48.180;11.400;2022-07-12T04:22:23;5.95;;;4.50;;
48006;SDS011;33771;48.180;11.400;2022-07-12T04:24:48;6.05;;;4.63;;
48006;SDS011;33771;48.180;11.400;2022-07-12T04:27:14;8.10;;;4.65;;
48006;SDS011;33771;48.180;11.400;2022-07-12T04:29:40;5.78;;;4.35;;
48006;SDS011;33771;48.180;11.400;2022-07-12T04:32:05;7.38;;;4.43;;
48006;SDS011;33771;48.180;11.400;2022-07-12T04:34:31;7.22;;;4.47;;
48006;SDS011;33771;48.180;11.400;2022-07-12T04:36:57;6.82;;;4.78;;
48006;SDS011;33771;48.180;11.400;2022-07-12T04:39:22;8.40;;;4.32;;
48006;SDS011;33771;48.180;11.400;2022-07-12T04:41:48;5.97;;;5.25;;
48006;SDS011;33771;48.180;11.400;2022-07-12T04:44:14;8.57;;;4.72;;
48006;SDS011;33771;48.180;11.400;2022-07-12T04:46:39;8.32;;;4.80;;
48006;SDS011;33771;48.180;11.400;2022-07-12T04:49:08;7.22;;;4.85;;
48006;SDS011;33771;48.180;11.400;2022-07-12T04:51:33;6.40;;;4.90;;
48006;SDS011;33771;48.180;11.400;2022-07-12T04:53:59;5.32;;;4.70;;
48006;SDS011;33771;48.180;11.400;2022-07-12T04:56:24;5.30;;;4.80;;
48006;SDS011;33771;48.180;11.400;2022-07-12T04:58:50;5.55;;;4.95;;
48006;SDS011;33771;48.180;11.400;2022-07-12T05:01:16;11.52;;;5.07;;
48006;SDS011;33771;48.180;11.400;2022-07-12T05:03:42;6.75;;;4.90;;
48006;SDS011;33771;48.180;11.400;2022-07-12T05:06:07;13.90;;;6.63;;
48006;SDS011;33771;48.180;11.400;2022-07-12T05:08:33;6.88;;;5.22;;
48006;SDS011;33771;48.180;11.400;2022-07-12T05:10:59;7.03;;;4.97;;
48006;SDS011;33771;48.180;11.400;2022-07-12T05:13:24;5.68;;;5.00;;
48006;SDS011;33771;48.180;11.400;2022-07-12T05:15:50;8.10;;;4.63;;
48006;SDS011;33771;48.180;11.400;2022-07-12T05:18:16;11.90;;;5.22;;
48006;SDS011;33771;48.180;11.400;2022-07-12T05:20:41;6.18;;;5.38;;
48006;SDS011;33771;48.180;11.400;2022-07-12T05:23:07;8.25;;;5.60;;
48006;SDS011;33771;48.180;11.400;2022-07-12T05:25:33;7.82;;;5.82;;
48006;SDS011;33771;48.180;11.400;2022-07-12T05:27:58;6.97;;;5.90;;
48006;SDS011;33771;48.180;11.400;2022-07-12T05:30:24;6.72;;;5.55;;
48006;SDS011;33771;48.180;11.400;2022-07-12T05:32:51;5.95;;;5.28;;
48006;SDS011;33771;48.180;11.400;2022-07-12T05:35:16;6.20;;;5.40;;
48006;SDS011;33771;48.180;11.400;2022-07-12T05:37:42;8.70;;;4.68;;
48006;SDS011;33771;48.180;11.400;2022-07-12T05:40:08;5.13;;;4.63;;
48006;SDS011;33771;48.180;11.400;2022-07-12T05:42:34;6.53;;;5.18;;
48006;SDS011;33771;48.180;11.400;2022-07-12T05:44:59;9.75;;;5.28;;
48006;SDS011;33771;48.180;11.400;2022-07-12T05:47:25;5.80;;;4.93;;
48006;SDS011;33771;48.180;11.400;2022-07-12T05:49:50;9.13;;;5.53;;
48006;SDS011;33771;48.180;11.400;2022-07-12T05:52:18;11.98;;;4.88;;
48006;SDS011;33771;48.180;11.400;2022-07-12T05:55:03;5.30;;;4.57;;
48006;SDS011;33771;48.180;11.400;2022-07-12T05:57:28;6.53;;;4.93;;
48006;SDS011;33771;48.180;11.400;2022-07-12T05:59:54;6.50;;;3.70;;
48006;SDS011;33771;48.180;11.400;2022-07-12T06:02:20;5.32;;;3.85;;
48006;SDS011;33771;48.180;11.400;2022-07-12T06:04:45;4.40;;;2.42;;
48006;SDS011;33771;48.180;11.400;2022-07-12T06:07:11;5.38;;;2.53;;
48006;SDS011;33771;48.180;11.400;2022-07-12T06:09:37;4.28;;;2.33;;
48006;SDS011;33771;48.180;11.400;2022-07-12T06:12:02;3.97;;;2.60;;
48006;SDS011;33771;48.180;11.400;2022-07-12T06:14:28;3.53;;;2.25;;
48006;SDS011;33771;48.180;11.400;2022-07-12T06:17:01;2.88;;;2.30;;
48006;SDS011;33771;48.180;11.400;2022-07-12T06:19:28;3.03;;;2.35;;
48006;SDS011;33771;48.180;11.400;2022-07-12T06:21:56;4.50;;;2.53;;
48006;SDS011;33771;48.180;11.400;2022-07-12T06:24:23;3.17;;;2.15;;
48006;SDS011;33771;48.180;11.400;2022-07-12T06:26:49;4.18;;;2.30;;
48006;SDS011;33771;48.180;11.400;2022-07-12T06:29:15;4.22;;;2.20;;
48006;SDS011;33771;48.180;11.400;2022-07-12T06:31:40;3.85;;;2.00;;
48006;SDS011;33771;48.180;11.400;2022-07-12T06:34:06;2.95;;;2.10;;
48006;SDS011;33771;48.180;11.400;2022-07-12T06:36:32;2.60;;;2.00;;
48006;SDS011;33771;48.180;11.400;2022-07-12T06:38:57;4.25;;;1.70;;
48006;SDS011;33771;48.180;11.400;2022-07-12T06:41:23;2.60;;;1.30;;
48006;SDS011;33771;48.180;11.400;2022-07-12T06:43:49;1.73;;;1.40;;
48006;SDS011;33771;48.180;11.400;2022-07-12T06:46:15;2.45;;;1.40;;
48006;SDS011;33771;48.180;11.400;2022-07-12T06:48:41;2.10;;;1.25;;
48006;SDS011;33771;48.180;11.400;2022-07-12T06:51:06;3.35;;;1.50;;
48006;SDS011;33771;48.180;11.400;2022-07-12T06:53:32;1.95;;;1.52;;
48006;SDS011;33771;48.180;11.400;2022-07-12T06:55:57;1.70;;;1.20;;
48006;SDS011;33771;48.180;11.400;2022-07-12T06:58:23;2.58;;;1.20;;
48006;SDS011;33771;48.180;11.400;2022-07-12T07:00:48;1.50;;;1.30;;
48006;SDS011;33771;48.180;11.400;2022-07-12T07:03:14;2.42;;;1.50;;
48006;SDS011;33771;48.180;11.400;2022-07-12T07:05:39;3.53;;;1.30;;
48006;SDS011;33771;48.180;11.400;2022-07-12T07:08:05;1.75;;;1.40;;
48006;SDS011;33771;48.180;11.400;2022-07-12T07:10:30;2.10;;;1.33;;
48006;SDS011;33771;48.180;11.400;2022-07-12T07:12:56;2.28;;;1.50;;
48006;SDS011;33771;48.180;11.400;2022-07-12T07:15:21;1.92;;;1.50;;
48006;SDS011;33771;48.180;11.400;2022-07-12T07:17:47;3.28;;;1.30;;
48006;SDS011;33771;48.180;11.400;2022-07-12T07:20:13;1.52;;;1.20;;
48006;SDS011;33771;48.180;11.400;2022-07-12T07:22:38;1.95;;;1.38;;
48006;SDS011;33771;48.180;11.400;2022-07-12T07:25:04;3.92;;;1.38;;
48006;SDS011;33771;48.180;11.400;2022-07-12T07:27:31;2.05;;;1.30;;
48006;SDS011;33771;48.180;11.400;2022-07-12T07:29:56;3.00;;;1.50;;
48006;SDS011;33771;48.180;11.400;2022-07-12T07:32:41;1.92;;;1.55;;
48006;SDS011;33771;48.180;11.400;2022-07-12T07:35:06;2.35;;;1.30;;
48006;SDS011;33771;48.180;11.400;2022-07-12T07:37:32;1.88;;;1.50;;
48006;SDS011;33771;48.180;11.400;2022-07-12T07:39:59;1.95;;;1.30;;
48006;SDS011;33771;48.180;11.400;2022-07-12T07:42:24;3.00;;;1.40;;
48006;SDS011;33771;48.180;11.400;2022-07-12T07:44:50;3.45;;;1.77;;
48006;SDS011;33771;48.180;11.400;2022-07-12T07:47:15;2.22;;;1.40;;
48006;SDS011;33771;48.180;11.400;2022-07-12T07:49:41;1.52;;;1.30;;
48006;SDS011;33771;48.180;11.400;2022-07-12T07:52:06;2.00;;;1.40;;
48006;SDS011;33771;48.180;11.400;2022-07-12T07:54:32;3.20;;;1.70;;
48006;SDS011;33771;48.180;11.400;2022-07-12T07:56:58;2.92;;;1.17;;
48006;SDS011;33771;48.180;11.400;2022-07-12T07:59:23;1.55;;;1.30;;
48006;SDS011;33771;48.180;11.400;2022-07-12T08:01:49;2.47;;;1.20;;
48006;SDS011;33771;48.180;11.400;2022-07-12T08:04:17;1.88;;;1.30;;
48006;SDS011;33771;48.180;11.400;2022-07-12T08:06:44;2.65;;;1.15;;
48006;SDS011;33771;48.180;11.400;2022-07-12T08:09:11;1.50;;;1.13;;
48006;SDS011;33771;48.180;11.400;2022-07-12T08:11:37;2.15;;;1.30;;
48006;SDS011;33771;48.180;11.400;2022-07-12T08:14:03;1.20;;;1.00;;
48006;SDS011;33771;48.180;11.400;2022-07-12T08:16:29;2.40;;;1.20;;
48006;SDS011;33771;48.180;11.400;2022-07-12T08:18:55;1.60;;;1.10;;
48006;SDS011;33771;48.180;11.400;2022-07-12T08:21:21;1.40;;;1.00;;
48006;SDS011;33771;48.180;11.400;2022-07-12T08:23:47;1.70;;;1.00;;
48006;SDS011;33771;48.180;11.400;2022-07-12T08:26:13;1.77;;;1.05;;
48006;SDS011;33771;48.180;11.400;2022-07-12T08:28:47;1.70;;;1.20;;
48006;SDS011;33771;48.180;11.400;2022-07-12T08:31:13;1.48;;;1.25;;
48006;SDS011;33771;48.180;11.400;2022-07-12T08:33:39;2.97;;;1.15;;
48006;SDS011;33771;48.180;11.400;2022-07-12T08:36:06;1.83;;;1.10;;
48006;SDS011;33771;48.180;11.400;2022-07-12T08:38:33;2.38;;;1.23;;
48006;SDS011;33771;48.180;11.400;2022-07-12T08:41:01;1.83;;;1.20;;
48006;SDS011;33771;48.180;11.400;2022-07-12T08:43:32;1.85;;;1.30;;
48006;SDS011;33771;48.180;11.400;2022-07-12T08:46:05;4.65;;;1.20;;
48006;SDS011;33771;48.180;11.400;2022-07-12T08:48:33;4.15;;;1.25;;
48006;SDS011;33771;48.180;11.400;2022-07-12T08:51:09;1.52;;;1.00;;
48006;SDS011;33771;48.180;11.400;2022-07-12T08:53:36;2.15;;;1.23;;
48006;SDS011;33771;48.180;11.400;2022-07-12T08:56:03;1.38;;;1.20;;
48006;SDS011;33771;48.180;11.400;2022-07-12T08:58:29;3.22;;;1.17;;
48006;SDS011;33771;48.180;11.400;2022-07-12T09:00:55;2.40;;;1.20;;
48006;SDS011;33771;48.180;11.400;2022-07-12T09:03:20;1.60;;;1.10;;
48006;SDS011;33771;48.180;11.400;2022-07-12T09:05:47;1.80;;;1.17;;
48006;SDS011;33771;48.180;11.400;2022-07-12T09:08:14;4.20;;;1.50;;
48006;SDS011;33771;48.180;11.400;2022-07-12T09:15:39;3.45;;;1.65;;
48006;SDS011;33771;48.180;11.400;2022-07-12T09:18:05;1.52;;;1.23;;
48006;SDS011;33771;48.180;11.400;2022-07-12T09:20:38;1.92;;;1.23;;
48006;SDS011;33771;48.180;11.400;2022-07-12T09:23:05;1.92;;;1.40;;
48006;SDS011;33771;48.180;11.400;2022-07-12T09:25:36;1.75;;;1.20;;
48006;SDS011;33771;48.180;11.400;2022-07-12T09:28:12;2.00;;;1.30;;
48006;SDS011;33771;48.180;11.400;2022-07-12T09:30:46;1.70;;;1.40;;
48006;SDS011;33771;48.180;11.400;2022-07-12T09:33:20;2.17;;;1.48;;
48006;SDS011;33771;48.180;11.400;2022-07-12T09:36:05;1.25;;;1.13;;
48006;SDS011;33771;48.180;11.400;2022-07-12T09:38:32;1.20;;;1.10;;
48006;SDS011;33771;48.180;11.400;2022-07-12T09:41:00;1.10;;;1.00;;
48006;SDS011;33771;48.180;11.400;2022-07-12T09:43:31;1.80;;;1.23;;
48006;SDS011;33771;48.180;11.400;2022-07-12T09:45:58;2.13;;;1.23;;
48006;SDS011;33771;48.180;11.400;2022-07-12T09:48:24;2.88;;;1.30;;
48006;SDS011;33771;48.180;11.400;2022-07-12T09:50:55;2.03;;;1.08;;
48006;SDS011;33771;48.180;11.400;2022-07-12T09:53:32;3.55;;;1.17;;
48006;SDS011;33771;48.180;11.400;2022-07-12T09:56:03;1.80;;;1.17;;
48006;SDS011;33771;48.180;11.400;2022-07-12T10:01:16;1.55;;;1.23;;
48006;SDS011;33771;48.180;11.400;2022-07-12T10:03:43;1.17;;;1.02;;
48006;SDS011;33771;48.180;11.400;2022-07-12T10:06:09;1.48;;;1.10;;
48006;SDS011;33771;48.180;11.400;2022-07-12T10:08:37;1.90;;;1.02;;
48006;SDS011;33771;48.180;11.400;2022-07-12T10:11:02;1.90;;;1.20;;
48006;SDS011;33771;48.180;11.400;2022-07-12T10:13:28;2.47;;;1.20;;
48006;SDS011;33771;48.180;11.400;2022-07-12T10:15:59;1.95;;;1.20;;
48006;SDS011;33771;48.180;11.400;2022-07-12T10:18:26;1.70;;;1.17;;
48006;SDS011;33771;48.180;11.400;2022-07-12T10:20:52;1.85;;;1.17;;
48006;SDS011;33771;48.180;11.400;2022-07-12T10:23:31;2.30;;;1.20;;
48006;SDS011;33771;48.180;11.400;2022-07-12T10:26:01;2.25;;;1.20;;
48006;SDS011;33771;48.180;11.400;2022-07-12T10:28:54;2.67;;;1.00;;
48006;SDS011;33771;48.180;11.400;2022-07-12T10:31:25;1.65;;;1.20;;
48006;SDS011;33771;48.180;11.400;2022-07-12T10:34:08;2.40;;;1.17;;
48006;SDS011;33771;48.180;11.400;2022-07-12T10:39:19;1.63;;;1.25;;
48006;SDS011;33771;48.180;11.400;2022-07-12T10:44:37;1.02;;;0.90;;
48006;SDS011;33771;48.180;11.400;2022-07-12T10:47:04;3.38;;;1.38;;
48006;SDS011;33771;48.180;11.400;2022-07-12T10:49:32;2.08;;;1.00;;
48006;SDS011;33771;48.180;11.400;2022-07-12T10:54:37;3.53;;;1.00;;
48006;SDS011;33771;48.180;11.400;2022-07-12T10:57:08;1.80;;;0.80;;
48006;SDS011;33771;48.180;11.400;2022-07-12T10:59:34;3.42;;;1.00;;
48006;SDS011;33771;48.180;11.400;2022-07-12T11:02:02;2.35;;;1.17;;
48006;SDS011;33771;48.180;11.400;2022-07-12T11:04:28;1.13;;;1.02;;
48006;SDS011;33771;48.180;11.400;2022-07-12T11:06:54;1.10;;;0.95;;
48006;SDS011;33771;48.180;11.400;2022-07-12T11:09:22;3.90;;;0.90;;
48006;SDS011;33771;48.180;11.400;2022-07-12T11:11:48;1.65;;;0.80;;
48006;SDS011;33771;48.180;11.400;2022-07-12T11:14:21;1.80;;;1.00;;
48006;SDS011;33771;48.180;11.400;2022-07-12T11:16:55;1.38;;;0.77;;
48006;SDS011;33771;48.180;11.400;2022-07-12T11:19:23;2.10;;;0.85;;
48006;SDS011;33771;48.180;11.400;2022-07-12T11:21:50;1.15;;;0.80;;
48006;SDS011;33771;48.180;11.400;2022-07-12T11:24:27;2.25;;;0.70;;
48006;SDS011;33771;48.180;11.400;2022-07-12T11:26:54;0.65;;;0.65;;
48006;SDS011;33771;48.180;11.400;2022-07-12T11:29:19;1.10;;;0.80;;
48006;SDS011;33771;48.180;11.400;2022-07-12T11:31:46;0.82;;;0.70;;
48006;SDS011;33771;48.180;11.400;2022-07-12T11:34:21;2.00;;;1.17;;
48006;SDS011;33771;48.180;11.400;2022-07-12T11:36:58;1.33;;;0.80;;
48006;SDS011;33771;48.180;11.400;2022-07-12T11:39:34;2.08;;;0.90;;
48006;SDS011;33771;48.180;11.400;2022-07-12T11:42:01;2.10;;;0.98;;
48006;SDS011;33771;48.180;11.400;2022-07-12T11:44:48;3.20;;;0.90;;
48006;SDS011;33771;48.180;11.400;2022-07-12T11:47:15;2.60;;;1.00;;
48006;SDS011;33771;48.180;11.400;2022-07-12T11:49:45;0.70;;;0.70;;
48006;SDS011;33771;48.180;11.400;2022-07-12T11:52:19;0.90;;;0.70;;
48006;SDS011;33771;48.180;11.400;2022-07-12T11:54:47;2.92;;;0.90;;
48006;SDS011;33771;48.180;11.400;2022-07-12T11:57:13;2.28;;;0.90;;
48006;SDS011;33771;48.180;11.400;2022-07-12T11:59:40;1.08;;;0.70;;
48006;SDS011;33771;48.180;11.400;2022-07-12T12:02:06;1.20;;;0.70;;
48006;SDS011;33771;48.180;11.400;2022-07-12T12:07:15;2.35;;;0.90;;
48006;SDS011;33771;48.180;11.400;2022-07-12T12:10:00;2.15;;;0.70;;
48006;SDS011;33771;48.180;11.400;2022-07-12T12:12:41;1.23;;;0.73;;
48006;SDS011;33771;48.180;11.400;2022-07-12T12:15:07;1.65;;;0.70;;
48006;SDS011;33771;48.180;11.400;2022-07-12T12:17:35;0.70;;;0.70;;
48006;SDS011;33771;48.180;11.400;2022-07-12T12:20:11;0.80;;;0.60;;
48006;SDS011;33771;48.180;11.400;2022-07-12T12:22:38;2.95;;;0.70;;
48006;SDS011;33771;48.180;11.400;2022-07-12T12:25:04;0.90;;;0.60;;
48006;SDS011;33771;48.180;11.400;2022-07-12T12:27:30;1.90;;;0.80;;
48006;SDS011;33771;48.180;11.400;2022-07-12T12:30:06;2.20;;;0.70;;
48006;SDS011;33771;48.180;11.400;2022-07-12T12:32:42;0.95;;;0.63;;
48006;SDS011;33771;48.180;11.400;2022-07-12T12:35:12;0.60;;;0.60;;
48006;SDS011;33771;48.180;11.400;2022-07-12T12:37:39;1.40;;;0.70;;
48006;SDS011;33771;48.180;11.400;2022-07-12T12:40:05;2.88;;;0.70;;
48006;SDS011;33771;48.180;11.400;2022-07-12T12:42:31;1.45;;;0.80;;
48006;SDS011;33771;48.180;11.400;2022-07-12T12:44:57;2.30;;;0.68;;
48006;SDS011;33771;48.180;11.400;2022-07-12T12:47:22;0.82;;;0.60;;
48006;SDS011;33771;48.180;11.400;2022-07-12T12:49:58;3.03;;;0.73;;
48006;SDS011;33771;48.180;11.400;2022-07-12T12:52:28;2.10;;;0.80;;
48006;SDS011;33771;48.180;11.400;2022-07-12T12:54:56;1.50;;;0.70;;
48006;SDS011;33771;48.180;11.400;2022-07-12T12:57:22;1.70;;;0.70;;
48006;SDS011;33771;48.180;11.400;2022-07-12T12:59:52;1.05;;;0.80;;
48006;SDS011;33771;48.180;11.400;2022-07-12T13:02:18;1.10;;;0.80;;
48006;SDS011;33771;48.180;11.400;2022-07-12T13:04:45;1.10;;;0.70;;
48006;SDS011;33771;48.180;11.400;2022-07-12T13:07:10;2.80;;;1.08;;
48006;SDS011;33771;48.180;11.400;2022-07-12T13:09:36;3.28;;;0.73;;
48006;SDS011;33771;48.180;11.400;2022-07-12T13:12:01;1.13;;;0.70;;
48006;SDS011;33771;48.180;11.400;2022-07-12T13:14:29;1.42;;;0.70;;
48006;SDS011;33771;48.180;11.400;2022-07-12T13:16:55;1.13;;;0.65;;
48006;SDS011;33771;48.180;11.400;2022-07-12T13:19:21;2.90;;;0.82;;
48006;SDS011;33771;48.180;11.400;2022-07-12T13:21:47;1.85;;;0.60;;
48006;SDS011;33771;48.180;11.400;2022-07-12T13:24:12;1.55;;;0.77;;
48006;SDS011;33771;48.180;11.400;2022-07-12T13:26:38;2.38;;;0.60;;
48006;SDS011;33771;48.180;11.400;2022-07-12T13:29:03;0.50;;;0.50;;
48006;SDS011;33771;48.180;11.400;2022-07-12T13:31:29;2.10;;;0.63;;
48006;SDS011;33771;48.180;11.400;2022-07-12T13:33:54;1.25;;;0.70;;
48006;SDS011;33771;48.180;11.400;2022-07-12T13:36:21;1.00;;;0.82;;
48006;SDS011;33771;48.180;11.400;2022-07-12T13:38:46;1.27;;;0.70;;
48006;SDS011;33771;48.180;11.400;2022-07-12T13:41:12;2.05;;;0.75;;
48006;SDS011;33771;48.180;11.400;2022-07-12T13:43:38;0.85;;;0.85;;
48006;SDS011;33771;48.180;11.400;2022-07-12T13:46:04;1.50;;;0.70;;
48006;SDS011;33771;48.180;11.400;2022-07-12T13:48:30;1.08;;;0.75;;
48006;SDS011;33771;48.180;11.400;2022-07-12T13:50:56;0.80;;;0.50;;
48006;SDS011;33771;48.180;11.400;2022-07-12T13:53:22;1.08;;;0.75;;
48006;SDS011;33771;48.180;11.400;2022-07-12T13:55:47;2.03;;;0.80;;
48006;SDS011;33771;48.180;11.400;2022-07-12T13:58:15;0.65;;;0.60;;
48006;SDS011;33771;48.180;11.400;2022-07-12T14:00:41;0.70;;;0.70;;
48006;SDS011;33771;48.180;11.400;2022-07-12T14:03:07;2.95;;;0.90;;
48006;SDS011;33771;48.180;11.400;2022-07-12T14:05:33;1.00;;;0.80;;
48006;SDS011;33771;48.180;11.400;2022-07-12T14:07:59;0.82;;;0.68;;
48006;SDS011;33771;48.180;11.400;2022-07-12T14:10:25;0.80;;;0.70;;
48006;SDS011;33771;48.180;11.400;2022-07-12T14:12:51;4.45;;;0.70;;
48006;SDS011;33771;48.180;11.400;2022-07-12T14:15:19;1.10;;;0.70;;
48006;SDS011;33771;48.180;11.400;2022-07-12T14:18:01;0.98;;;0.70;;
48006;SDS011;33771;48.180;11.400;2022-07-12T14:20:30;2.13;;;0.80;;
48006;SDS011;33771;48.180;11.400;2022-07-12T14:22:56;0.88;;;0.70;;
48006;SDS011;33771;48.180;11.400;2022-07-12T14:25:21;2.45;;;0.80;;
48006;SDS011;33771;48.180;11.400;2022-07-12T14:27:47;0.70;;;0.70;;
48006;SDS011;33771;48.180;11.400;2022-07-12T14:30:13;0.90;;;0.70;;
48006;SDS011;33771;48.180;11.400;2022-07-12T14:32:39;3.15;;;0.68;;
48006;SDS011;33771;48.180;11.400;2022-07-12T14:35:07;2.60;;;0.80;;
48006;SDS011;33771;48.180;11.400;2022-07-12T14:37:34;1.90;;;0.70;;
48006;SDS011;33771;48.180;11.400;2022-07-12T14:40:01;4.03;;;0.70;;
48006;SDS011;33771;48.180;11.400;2022-07-12T14:42:30;1.63;;;0.70;;
48006;SDS011;33771;48.180;11.400;2022-07-12T14:44:57;2.97;;;0.80;;
48006;SDS011;33771;48.180;11.400;2022-07-12T14:47:23;0.73;;;0.73;;
48006;SDS011;33771;48.180;11.400;2022-07-12T14:49:52;1.02;;;0.88;;
48006;SDS011;33771;48.180;11.400;2022-07-12T14:52:20;2.97;;;0.85;;